createdAt,value
2019-05-07T00:00:24.143Z,0.00
2019-05-07T00:01:24.112Z,0.00
2019-05-07T00:02:24.101Z,0.00
2019-05-07T00:03:24.095Z,0.00
2019-05-07T00:04:24.083Z,0.00
2019-05-07T00:05:24.088Z,0.00
2019-05-07T00:06:24.059Z,0.00
2019-05-07T00:07:24.063Z,0.00
2019-05-07T00:08:24.064Z,0.00
2019-05-07T00:09:24.023Z,0.00
2019-05-07T00:10:24.877Z,0.00
2019-05-07T00:11:24.002Z,0.00
2019-05-07T00:12:23.988Z,0.00
2019-05-07T00:13:23.979Z,0.00
2019-05-07T00:14:23.967Z,0.00
2019-05-07T00:15:23.977Z,0.00
2019-05-07T00:16:23.946Z,0.00
2019-05-07T00:17:23.932Z,0.00
2019-05-07T00:18:23.921Z,0.00
2019-05-07T00:19:23.914Z,0.00
2019-05-07T00:20:23.919Z,0.00
2019-05-07T00:21:23.887Z,0.00
2019-05-07T00:22:23.879Z,0.00
2019-05-07T00:23:23.865Z,0.00
2019-05-07T00:24:23.890Z,0.00
2019-05-07T00:25:23.861Z,0.00
2019-05-07T00:26:23.830Z,0.00
2019-05-07T00:27:23.818Z,0.00
2019-05-07T00:28:23.830Z,0.00
2019-05-07T00:29:23.815Z,0.00
2019-05-07T00:30:23.827Z,0.00
2019-05-07T00:31:23.774Z,0.00
2019-05-07T00:32:23.768Z,0.00
2019-05-07T00:33:23.752Z,0.00
2019-05-07T00:34:23.741Z,0.00
2019-05-07T00:35:23.751Z,0.00
2019-05-07T00:36:23.718Z,0.00
2019-05-07T00:37:23.709Z,0.00
2019-05-07T00:38:23.705Z,0.00
2019-05-07T00:39:23.685Z,0.00
2019-05-07T00:40:23.695Z,0.00
2019-05-07T00:41:23.662Z,0.00
2019-05-07T00:42:23.675Z,0.00
2019-05-07T00:43:23.650Z,0.00
2019-05-07T00:44:23.627Z,0.00
2019-05-07T00:45:23.982Z,0.00
2019-05-07T00:46:23.610Z,0.00
2019-05-07T00:47:23.595Z,0.00
2019-05-07T00:48:23.662Z,0.00
2019-05-07T00:49:23.573Z,0.00
2019-05-07T00:50:23.581Z,0.00
2019-05-07T00:51:23.553Z,0.00
2019-05-07T00:52:23.542Z,0.00
2019-05-07T00:53:23.831Z,0.00
2019-05-07T00:54:23.519Z,0.00
2019-05-07T00:55:23.525Z,0.00
2019-05-07T00:56:23.494Z,0.00
2019-05-07T00:57:23.482Z,0.00
2019-05-07T00:58:26.673Z,0.00
2019-05-07T00:59:23.463Z,0.00
2019-05-07T01:00:23.471Z,0.00
2019-05-07T01:01:23.443Z,0.00
2019-05-07T01:02:23.429Z,0.00
2019-05-07T01:03:23.416Z,0.00
2019-05-07T01:04:23.407Z,0.00
2019-05-07T01:05:23.429Z,0.00
2019-05-07T01:06:26.390Z,0.00
2019-05-07T01:07:23.373Z,0.00
2019-05-07T01:08:23.359Z,0.00
2019-05-07T01:09:23.392Z,0.00
2019-05-07T01:10:23.358Z,0.00
2019-05-07T01:11:23.328Z,0.00
2019-05-07T01:12:23.318Z,0.00
2019-05-07T01:13:23.607Z,0.00
2019-05-07T01:14:23.292Z,0.00
2019-05-07T01:15:31.207Z,0.00
2019-05-07T01:16:23.273Z,0.00
2019-05-07T01:17:23.261Z,0.00
2019-05-07T01:18:23.571Z,0.00
2019-05-07T01:19:23.239Z,0.00
2019-05-07T01:20:23.228Z,0.00
2019-05-07T01:21:23.233Z,0.00
2019-05-07T01:22:23.203Z,0.00
2019-05-07T01:23:23.229Z,0.00
2019-05-07T01:24:23.444Z,0.00
2019-05-07T01:25:23.170Z,0.00
2019-05-07T01:26:23.178Z,0.00
2019-05-07T01:27:23.147Z,0.00
2019-05-07T01:28:23.138Z,0.00
2019-05-07T01:29:23.127Z,0.00
2019-05-07T01:30:23.253Z,0.00
2019-05-07T01:31:23.124Z,0.00
2019-05-07T01:32:23.134Z,0.00
2019-05-07T01:33:23.081Z,0.00
2019-05-07T01:34:23.226Z,0.00
2019-05-07T01:35:23.078Z,0.00
2019-05-07T01:36:23.069Z,0.00
2019-05-07T01:37:23.251Z,0.00
2019-05-07T01:38:23.073Z,0.00
2019-05-07T01:39:23.311Z,0.00
2019-05-07T01:40:23.006Z,0.00
2019-05-07T01:41:23.167Z,0.00
2019-05-07T01:42:22.986Z,0.00
2019-05-07T01:43:22.977Z,0.00
2019-05-07T01:44:22.959Z,0.00
2019-05-07T01:45:25.029Z,0.00
2019-05-07T01:46:24.707Z,0.00
2019-05-07T01:47:23.692Z,0.00
2019-05-07T01:48:23.132Z,0.00
2019-05-07T01:49:24.040Z,0.00
2019-05-07T01:50:22.923Z,0.00
2019-05-07T01:51:22.900Z,0.00
2019-05-07T01:52:22.881Z,0.00
2019-05-07T01:53:22.993Z,0.00
2019-05-07T01:54:23.845Z,0.00
2019-05-07T01:55:22.837Z,0.00
2019-05-07T01:56:23.062Z,0.00
2019-05-07T01:57:23.255Z,0.00
2019-05-07T01:58:22.807Z,0.00
2019-05-07T01:59:22.794Z,0.00
2019-05-07T02:00:22.781Z,0.00
2019-05-07T02:01:22.790Z,0.00
2019-05-07T02:02:23.042Z,0.00
2019-05-07T02:03:23.152Z,0.00
2019-05-07T02:04:22.738Z,0.00
2019-05-07T02:05:22.945Z,0.00
2019-05-07T02:06:22.846Z,0.00
2019-05-07T02:07:22.783Z,0.00
2019-05-07T02:08:22.694Z,0.00
2019-05-07T02:09:22.696Z,0.00
2019-05-07T02:10:22.816Z,0.00
2019-05-07T02:11:22.685Z,0.00
2019-05-07T02:12:22.650Z,0.00
2019-05-07T02:13:22.638Z,0.00
2019-05-07T02:14:22.627Z,0.00
2019-05-07T02:15:22.755Z,0.00
2019-05-07T02:16:22.641Z,0.00
2019-05-07T02:17:22.895Z,0.00
2019-05-07T02:18:22.581Z,0.00
2019-05-07T02:19:22.569Z,0.00
2019-05-07T02:20:22.673Z,0.00
2019-05-07T02:21:22.570Z,0.00
2019-05-07T02:22:22.767Z,0.00
2019-05-07T02:23:22.534Z,0.00
2019-05-07T02:24:22.513Z,0.00
2019-05-07T02:25:22.507Z,0.00
2019-05-07T02:26:22.779Z,0.00
2019-05-07T02:27:22.487Z,0.00
2019-05-07T02:28:22.469Z,0.00
2019-05-07T02:29:22.857Z,0.00
2019-05-07T02:30:23.765Z,0.00
2019-05-07T02:31:23.256Z,0.00
2019-05-07T02:32:24.125Z,0.00
2019-05-07T02:33:23.112Z,0.00
2019-05-07T02:34:23.469Z,0.00
2019-05-07T02:35:23.484Z,0.00
2019-05-07T02:36:23.672Z,0.00
2019-05-07T02:37:23.261Z,0.00
2019-05-07T02:38:23.157Z,0.00
2019-05-07T02:39:24.035Z,0.00
2019-05-07T02:40:23.089Z,0.00
2019-05-07T02:41:23.319Z,0.00
2019-05-07T02:42:23.888Z,0.00
2019-05-07T02:43:22.888Z,0.00
2019-05-07T02:44:23.222Z,0.00
2019-05-07T02:45:23.952Z,0.00
2019-05-07T02:46:29.932Z,0.00
2019-05-07T02:47:23.710Z,0.00
2019-05-07T02:48:23.749Z,0.00
2019-05-07T02:49:23.495Z,0.00
2019-05-07T02:50:22.852Z,0.00
2019-05-07T02:51:24.041Z,0.00
2019-05-07T02:52:22.906Z,0.00
2019-05-07T02:53:22.872Z,0.00
2019-05-07T02:54:24.241Z,0.00
2019-05-07T02:55:23.264Z,0.00
2019-05-07T02:56:23.595Z,0.00
2019-05-07T02:57:24.010Z,0.00
2019-05-07T02:58:24.012Z,0.00
2019-05-07T02:59:23.278Z,0.00
2019-05-07T03:00:24.203Z,0.00
2019-05-07T03:01:22.765Z,0.00
2019-05-07T03:02:24.097Z,0.00
2019-05-07T03:03:24.616Z,0.00
2019-05-07T03:04:24.640Z,0.00
2019-05-07T03:05:23.001Z,0.00
2019-05-07T03:06:23.322Z,0.00
2019-05-07T03:07:24.259Z,0.00
2019-05-07T03:08:27.018Z,0.00
2019-05-07T03:09:22.756Z,0.00
2019-05-07T03:10:23.758Z,0.00
2019-05-07T03:11:22.946Z,0.00
2019-05-07T03:12:23.691Z,0.00
2019-05-07T03:13:23.739Z,0.00
2019-05-07T03:14:23.424Z,0.00
2019-05-07T03:15:24.174Z,0.00
2019-05-07T03:16:38.821Z,0.00
2019-05-07T03:17:24.661Z,0.00
2019-05-07T03:18:23.295Z,0.00
2019-05-07T03:19:24.229Z,0.00
2019-05-07T03:20:22.958Z,0.00
2019-05-07T03:21:23.469Z,0.00
2019-05-07T03:22:23.174Z,0.00
2019-05-07T03:23:22.793Z,0.00
2019-05-07T03:24:23.059Z,0.00
2019-05-07T03:25:23.122Z,0.00
2019-05-07T03:26:23.077Z,0.00
2019-05-07T03:27:23.497Z,0.00
2019-05-07T03:28:23.106Z,0.00
2019-05-07T03:29:24.014Z,0.00
2019-05-07T03:30:26.008Z,0.00
2019-05-07T03:31:26.177Z,0.00
2019-05-07T03:32:27.342Z,0.00
2019-05-07T03:33:26.215Z,0.00
2019-05-07T03:34:25.599Z,0.00
2019-05-07T03:35:26.640Z,0.00
2019-05-07T03:36:26.047Z,0.00
2019-05-07T03:37:23.405Z,0.00
2019-05-07T03:38:22.817Z,0.00
2019-05-07T03:39:24.119Z,0.00
2019-05-07T03:40:23.046Z,0.00
2019-05-07T03:41:22.663Z,0.00
2019-05-07T03:42:23.587Z,0.00
2019-05-07T03:43:22.864Z,0.00
2019-05-07T03:44:23.882Z,0.00
2019-05-07T03:45:23.054Z,0.00
2019-05-07T03:46:23.429Z,0.00
2019-05-07T03:47:23.865Z,0.00
2019-05-07T03:48:23.758Z,0.00
2019-05-07T03:49:22.571Z,0.00
2019-05-07T03:50:23.383Z,0.00
2019-05-07T03:51:23.725Z,0.00
2019-05-07T03:52:24.547Z,0.00
2019-05-07T03:53:23.131Z,0.00
2019-05-07T03:54:23.925Z,0.00
2019-05-07T03:55:23.369Z,0.00
2019-05-07T03:56:23.631Z,0.00
2019-05-07T03:57:23.727Z,0.00
2019-05-07T03:58:23.505Z,0.00
2019-05-07T03:59:23.092Z,0.00
2019-05-07T04:00:23.894Z,0.00
2019-05-07T04:01:24.029Z,0.00
2019-05-07T04:02:23.846Z,0.00
2019-05-07T04:03:24.279Z,0.00
2019-05-07T04:04:23.050Z,0.00
2019-05-07T04:05:23.206Z,0.00
2019-05-07T04:06:23.354Z,0.00
2019-05-07T04:07:23.228Z,0.00
2019-05-07T04:08:23.736Z,0.00
2019-05-07T04:09:24.035Z,0.00
2019-05-07T04:10:23.206Z,0.00
2019-05-07T04:11:23.064Z,0.00
2019-05-07T04:12:23.851Z,0.00
2019-05-07T04:13:23.867Z,0.00
2019-05-07T04:14:23.172Z,0.00
2019-05-07T04:15:23.320Z,0.00
2019-05-07T04:16:23.967Z,0.00
2019-05-07T04:17:26.308Z,0.00
2019-05-07T04:18:23.776Z,0.00
2019-05-07T04:19:23.586Z,0.00
2019-05-07T04:20:24.015Z,0.00
2019-05-07T04:21:23.177Z,0.00
2019-05-07T04:22:23.845Z,0.00
2019-05-07T04:23:23.237Z,0.00
2019-05-07T04:24:23.495Z,0.00
2019-05-07T04:25:24.080Z,5.62
2019-05-07T04:26:23.259Z,5.62
2019-05-07T04:27:23.844Z,5.62
2019-05-07T04:28:23.542Z,5.62
2019-05-07T04:29:23.113Z,5.62
2019-05-07T04:30:23.612Z,5.62
2019-05-07T04:31:22.964Z,5.62
2019-05-07T04:32:23.204Z,5.62
2019-05-07T04:33:23.573Z,5.62
2019-05-07T04:34:23.829Z,5.62
2019-05-07T04:35:21.064Z,5.62
2019-05-07T04:36:23.070Z,5.62
2019-05-07T04:37:23.754Z,5.62
2019-05-07T04:38:23.708Z,5.62
2019-05-07T04:39:23.196Z,5.62
2019-05-07T04:40:24.069Z,5.62
2019-05-07T04:41:23.396Z,5.62
2019-05-07T04:42:24.023Z,5.62
2019-05-07T04:49:13.075Z,5.62
2019-05-07T04:49:33.355Z,5.62
2019-05-07T04:50:42.599Z,5.62
2019-05-07T04:51:33.997Z,5.62
2019-05-07T04:52:33.751Z,5.62
2019-05-07T04:53:33.095Z,5.62
2019-05-07T04:54:33.105Z,5.62
2019-05-07T04:55:33.605Z,5.62
2019-05-07T04:56:33.656Z,11.25
2019-05-07T04:57:33.120Z,11.25
2019-05-07T04:58:33.765Z,11.25
2019-05-07T04:59:33.187Z,11.25
2019-05-07T05:00:33.638Z,11.25
2019-05-07T05:01:33.050Z,11.25
2019-05-07T05:02:32.867Z,11.25
2019-05-07T05:03:34.710Z,11.25
2019-05-07T05:04:34.944Z,11.25
2019-05-07T05:05:33.143Z,11.25
2019-05-07T05:06:33.072Z,11.25
2019-05-07T05:07:33.478Z,11.25
2019-05-07T05:08:32.825Z,11.25
2019-05-07T05:09:33.207Z,11.25
2019-05-07T05:10:33.768Z,11.25
2019-05-07T05:11:33.513Z,16.88
2019-05-07T05:12:32.831Z,16.88
2019-05-07T05:13:33.323Z,16.88
2019-05-07T05:14:33.879Z,16.88
2019-05-07T05:15:32.720Z,16.88
2019-05-07T05:16:32.859Z,16.88
2019-05-07T05:17:46.237Z,16.88
2019-05-07T05:18:33.083Z,22.50
2019-05-07T05:19:32.678Z,22.50
2019-05-07T05:20:33.649Z,22.50
2019-05-07T05:21:32.651Z,22.50
2019-05-07T05:22:32.639Z,22.50
2019-05-07T05:23:32.653Z,22.50
2019-05-07T05:24:33.074Z,22.50
2019-05-07T05:25:32.606Z,22.50
2019-05-07T05:26:32.754Z,22.50
2019-05-07T05:27:32.753Z,22.50
2019-05-07T05:28:32.574Z,22.50
2019-05-07T05:29:32.587Z,22.50
2019-05-07T05:30:32.781Z,22.50
2019-05-07T05:31:33.171Z,22.50
2019-05-07T05:32:32.556Z,22.50
2019-05-07T05:33:32.552Z,22.50
2019-05-07T05:34:32.980Z,22.50
2019-05-07T05:35:32.494Z,22.50
2019-05-07T05:36:33.105Z,22.50
2019-05-07T05:37:32.472Z,28.12
2019-05-07T05:38:33.099Z,22.50
2019-05-07T05:39:32.475Z,22.50
2019-05-07T05:40:32.441Z,22.50
2019-05-07T05:41:34.044Z,22.50
2019-05-07T05:42:33.045Z,22.50
2019-05-07T05:43:32.404Z,28.12
2019-05-07T05:44:32.418Z,28.12
2019-05-07T05:45:33.477Z,28.12
2019-05-07T05:46:32.369Z,28.12
2019-05-07T05:47:32.983Z,28.12
2019-05-07T05:48:33.399Z,28.12
2019-05-07T05:49:32.442Z,28.12
2019-05-07T05:50:33.133Z,28.12
2019-05-07T05:51:32.395Z,28.12
2019-05-07T05:52:32.913Z,28.12
2019-05-07T05:53:32.794Z,28.12
2019-05-07T05:54:32.303Z,33.75
2019-05-07T05:55:32.294Z,33.75
2019-05-07T05:56:32.505Z,33.75
2019-05-07T05:57:32.421Z,33.75
2019-05-07T05:58:32.597Z,33.75
2019-05-07T05:59:46.883Z,33.75
2019-05-07T06:00:33.216Z,33.75
2019-05-07T06:01:32.206Z,33.75
2019-05-07T06:02:32.453Z,33.75
2019-05-07T06:03:32.379Z,39.38
2019-05-07T06:04:32.914Z,39.38
2019-05-07T06:05:34.281Z,39.38
2019-05-07T06:06:32.711Z,39.38
2019-05-07T06:07:32.132Z,45.00
2019-05-07T06:08:32.647Z,45.00
2019-05-07T06:09:32.838Z,45.00
2019-05-07T06:10:33.020Z,45.00
2019-05-07T06:11:32.275Z,45.00
2019-05-07T06:12:32.762Z,45.00
2019-05-07T06:13:32.379Z,45.00
2019-05-07T06:14:33.009Z,45.00
2019-05-07T06:15:32.746Z,45.00
2019-05-07T06:16:32.891Z,45.00
2019-05-07T06:17:32.237Z,45.00
2019-05-07T06:18:32.749Z,45.00
2019-05-07T06:19:32.839Z,50.62
2019-05-07T06:20:32.178Z,50.62
2019-05-07T06:21:32.359Z,50.62
2019-05-07T06:22:33.091Z,50.62
2019-05-07T06:23:33.012Z,50.62
2019-05-07T06:24:31.965Z,50.62
2019-05-07T06:25:33.470Z,50.62
2019-05-07T06:26:32.019Z,50.62
2019-05-07T06:27:32.543Z,50.62
2019-05-07T06:28:32.982Z,50.62
2019-05-07T06:29:32.965Z,50.62
2019-05-07T06:30:33.843Z,56.25
2019-05-07T06:31:32.680Z,56.25
2019-05-07T06:32:32.086Z,56.25
2019-05-07T06:33:32.451Z,56.25
2019-05-07T06:34:34.111Z,56.25
2019-05-07T06:35:32.471Z,56.25
2019-05-07T06:36:32.817Z,61.88
2019-05-07T06:37:32.192Z,67.50
2019-05-07T06:38:32.133Z,73.12
2019-05-07T06:39:32.787Z,73.12
2019-05-07T06:40:32.253Z,73.12
2019-05-07T06:41:32.286Z,78.75
2019-05-07T06:42:33.238Z,78.75
2019-05-07T06:43:32.565Z,84.38
2019-05-07T06:44:32.086Z,84.38
2019-05-07T06:45:35.167Z,84.38
2019-05-07T06:46:32.307Z,90.00
2019-05-07T06:47:31.965Z,90.00
2019-05-07T06:48:42.223Z,95.62
2019-05-07T06:49:32.701Z,95.62
2019-05-07T06:50:32.739Z,95.62
2019-05-07T06:51:32.834Z,90.00
2019-05-07T06:52:32.075Z,84.38
2019-05-07T06:53:33.451Z,84.38
2019-05-07T06:54:32.201Z,78.75
2019-05-07T06:55:32.370Z,78.75
2019-05-07T06:56:32.539Z,73.12
2019-05-07T06:57:32.988Z,73.12
2019-05-07T06:58:32.683Z,67.50
2019-05-07T06:59:34.291Z,67.50
2019-05-07T07:00:32.010Z,61.88
2019-05-07T07:01:32.328Z,61.88
2019-05-07T07:02:32.862Z,56.25
2019-05-07T07:03:32.785Z,56.25
2019-05-07T07:04:33.150Z,56.25
2019-05-07T07:05:33.009Z,50.62
2019-05-07T07:06:32.173Z,50.62
2019-05-07T07:07:36.489Z,50.62
2019-05-07T07:08:32.530Z,50.62
2019-05-07T07:09:32.945Z,50.62
2019-05-07T07:10:32.217Z,45.00
2019-05-07T07:11:31.980Z,45.00
2019-05-07T07:12:33.101Z,45.00
2019-05-07T07:13:32.165Z,45.00
2019-05-07T07:14:33.161Z,45.00
2019-05-07T07:15:32.045Z,45.00
2019-05-07T07:16:32.607Z,45.00
2019-05-07T07:17:32.646Z,45.00
2019-05-07T07:18:32.279Z,50.62
2019-05-07T07:19:32.482Z,50.62
2019-05-07T07:20:32.601Z,50.62
2019-05-07T07:21:32.669Z,50.62
2019-05-07T07:22:31.939Z,56.25
2019-05-07T07:23:32.336Z,56.25
2019-05-07T07:24:32.905Z,56.25
2019-05-07T07:25:32.593Z,61.88
2019-05-07T07:26:32.765Z,67.50
2019-05-07T07:27:32.177Z,67.50
2019-05-07T07:28:32.593Z,73.12
2019-05-07T07:29:32.405Z,78.75
2019-05-07T07:30:32.632Z,78.75
2019-05-07T07:31:31.929Z,84.38
2019-05-07T07:32:31.774Z,90.00
2019-05-07T07:33:31.982Z,90.00
2019-05-07T07:34:33.306Z,95.62
2019-05-07T07:35:32.203Z,101.25
2019-05-07T07:36:32.028Z,101.25
2019-05-07T07:37:32.044Z,101.25
2019-05-07T07:38:32.883Z,106.88
2019-05-07T07:39:32.299Z,106.88
2019-05-07T07:40:32.707Z,106.88
2019-05-07T07:41:32.673Z,106.88
2019-05-07T07:42:31.988Z,106.88
2019-05-07T07:43:32.505Z,112.50
2019-05-07T07:44:33.018Z,112.50
2019-05-07T07:45:32.444Z,112.50
2019-05-07T07:46:33.053Z,112.50
2019-05-07T07:47:32.939Z,118.12
2019-05-07T07:48:32.051Z,118.12
2019-05-07T07:49:32.904Z,123.75
2019-05-07T07:50:32.993Z,129.38
2019-05-07T07:51:40.767Z,135.00
2019-05-07T07:52:32.425Z,135.00
2019-05-07T07:53:34.830Z,140.62
2019-05-07T07:54:32.069Z,140.62
2019-05-07T07:55:33.019Z,146.25
2019-05-07T07:56:45.339Z,146.25
2019-05-07T07:57:32.435Z,146.25
2019-05-07T07:58:32.200Z,146.25
2019-05-07T07:59:32.857Z,146.25
2019-05-07T08:00:32.879Z,146.25
2019-05-07T08:01:32.930Z,146.25
2019-05-07T08:02:32.239Z,146.25
2019-05-07T08:03:32.917Z,146.25
2019-05-07T08:04:31.981Z,151.88
2019-05-07T08:05:32.574Z,151.88
2019-05-07T08:06:32.660Z,151.88
2019-05-07T08:07:32.914Z,151.88
2019-05-07T08:08:31.973Z,151.88
2019-05-07T08:09:32.418Z,146.25
2019-05-07T08:10:32.571Z,146.25
2019-05-07T08:11:31.975Z,146.25
2019-05-07T08:12:32.527Z,151.88
2019-05-07T08:13:32.456Z,157.50
2019-05-07T08:14:32.482Z,163.12
2019-05-07T08:15:32.831Z,168.75
2019-05-07T08:16:32.801Z,174.38
2019-05-07T08:17:32.628Z,180.00
2019-05-07T08:18:32.653Z,185.62
2019-05-07T08:19:32.730Z,185.62
2019-05-07T08:20:32.649Z,191.25
2019-05-07T08:21:33.023Z,196.88
2019-05-07T08:22:32.814Z,191.25
2019-05-07T08:23:31.919Z,191.25
2019-05-07T08:24:32.063Z,191.25
2019-05-07T08:25:32.143Z,191.25
2019-05-07T08:26:32.341Z,191.25
2019-05-07T08:27:32.533Z,191.25
2019-05-07T08:28:31.967Z,191.25
2019-05-07T08:29:32.596Z,191.25
2019-05-07T08:30:32.624Z,191.25
2019-05-07T08:31:32.085Z,185.62
2019-05-07T08:32:32.515Z,185.62
2019-05-07T08:33:32.268Z,185.62
2019-05-07T08:34:31.986Z,185.62
2019-05-07T08:35:32.561Z,174.38
2019-05-07T08:36:32.985Z,168.75
2019-05-07T08:37:32.110Z,163.12
2019-05-07T08:38:32.651Z,163.12
2019-05-07T08:39:32.622Z,163.12
2019-05-07T08:40:32.426Z,163.12
2019-05-07T08:41:31.962Z,163.12
2019-05-07T08:42:32.014Z,157.50
2019-05-07T08:43:32.250Z,151.88
2019-05-07T08:44:32.429Z,157.50
2019-05-07T08:45:32.507Z,157.50
2019-05-07T08:46:30.386Z,157.50
2019-05-07T08:47:31.951Z,157.50
2019-05-07T08:48:32.090Z,151.88
2019-05-07T08:49:38.695Z,151.88
2019-05-07T08:50:32.664Z,151.88
2019-05-07T08:51:30.319Z,157.50
2019-05-07T08:52:32.569Z,157.50
2019-05-07T08:53:30.277Z,157.50
2019-05-07T08:54:32.080Z,168.75
2019-05-07T08:55:32.196Z,168.75
2019-05-07T08:56:31.880Z,174.38
2019-05-07T08:57:31.889Z,174.38
2019-05-07T08:58:31.733Z,168.75
2019-05-07T08:59:31.899Z,157.50
2019-05-07T09:00:32.436Z,157.50
2019-05-07T09:01:32.404Z,163.12
2019-05-07T09:02:32.427Z,174.38
2019-05-07T09:03:32.306Z,174.38
2019-05-07T09:04:32.380Z,180.00
2019-05-07T09:05:32.201Z,185.62
2019-05-07T09:06:31.884Z,202.50
2019-05-07T09:07:32.137Z,219.38
2019-05-07T09:08:32.038Z,219.38
2019-05-07T09:09:32.253Z,208.12
2019-05-07T09:10:32.296Z,202.50
2019-05-07T09:11:32.079Z,196.88
2019-05-07T09:12:31.835Z,191.25
2019-05-07T09:13:30.051Z,180.00
2019-05-07T09:14:32.068Z,180.00
2019-05-07T09:15:32.006Z,180.00
2019-05-07T09:16:31.917Z,180.00
2019-05-07T09:17:31.867Z,185.62
2019-05-07T09:18:32.108Z,174.38
2019-05-07T09:19:32.060Z,174.38
2019-05-07T09:20:31.984Z,174.38
2019-05-07T09:21:32.060Z,180.00
2019-05-07T09:22:32.118Z,191.25
2019-05-07T09:23:31.957Z,191.25
2019-05-07T09:24:29.928Z,191.25
2019-05-07T09:25:29.920Z,202.50
2019-05-07T09:26:29.930Z,208.12
2019-05-07T09:27:29.895Z,225.00
2019-05-07T09:28:29.883Z,219.38
2019-05-07T09:29:29.875Z,213.75
2019-05-07T09:30:29.867Z,213.75
2019-05-07T09:31:32.094Z,213.75
2019-05-07T09:32:29.841Z,213.75
2019-05-07T09:33:31.909Z,219.38
2019-05-07T09:34:29.816Z,225.00
2019-05-07T09:35:31.939Z,230.62
2019-05-07T09:36:32.132Z,236.25
2019-05-07T09:37:29.812Z,241.88
2019-05-07T09:38:29.772Z,241.88
2019-05-07T09:39:29.762Z,241.88
2019-05-07T09:40:31.887Z,253.12
2019-05-07T09:41:29.739Z,258.75
2019-05-07T09:42:29.749Z,258.75
2019-05-07T09:43:29.716Z,264.38
2019-05-07T09:44:29.704Z,264.38
2019-05-07T09:45:29.692Z,264.38
2019-05-07T09:46:29.681Z,258.75
2019-05-07T09:47:29.692Z,241.88
2019-05-07T09:48:29.663Z,241.88
2019-05-07T09:49:29.649Z,253.12
2019-05-07T09:50:29.640Z,258.75
2019-05-07T09:51:32.013Z,258.75
2019-05-07T09:52:31.925Z,258.75
2019-05-07T09:53:29.606Z,241.88
2019-05-07T09:54:29.591Z,253.12
2019-05-07T09:55:29.580Z,275.62
2019-05-07T09:56:31.882Z,270.00
2019-05-07T09:57:31.509Z,275.62
2019-05-07T09:58:36.688Z,298.12
2019-05-07T09:59:29.538Z,315.00
2019-05-07T10:00:29.531Z,303.75
2019-05-07T10:01:31.426Z,298.12
2019-05-07T10:02:29.525Z,286.88
2019-05-07T10:03:29.493Z,275.62
2019-05-07T10:04:29.480Z,275.62
2019-05-07T10:05:29.468Z,270.00
2019-05-07T10:06:29.458Z,275.62
2019-05-07T10:07:29.470Z,275.62
2019-05-07T10:08:31.691Z,264.38
2019-05-07T10:09:29.425Z,258.75
2019-05-07T10:10:29.413Z,247.50
2019-05-07T10:11:29.402Z,241.88
2019-05-07T10:12:29.418Z,230.62
2019-05-07T10:13:29.379Z,247.50
2019-05-07T10:14:29.369Z,275.62
2019-05-07T10:15:29.360Z,275.62
2019-05-07T10:16:29.346Z,281.25
2019-05-07T10:17:29.362Z,286.88
2019-05-07T10:18:29.327Z,303.75
2019-05-07T10:19:29.331Z,298.12
2019-05-07T10:20:29.302Z,286.88
2019-05-07T10:21:29.292Z,253.12
2019-05-07T10:22:29.303Z,225.00
2019-05-07T10:23:29.271Z,219.38
2019-05-07T10:24:29.257Z,213.75
2019-05-07T10:25:29.246Z,219.38
2019-05-07T10:26:29.238Z,230.62
2019-05-07T10:27:29.246Z,230.62
2019-05-07T10:28:29.214Z,225.00
2019-05-07T10:29:29.205Z,219.38
2019-05-07T10:30:29.197Z,213.75
2019-05-07T10:31:29.178Z,208.12
2019-05-07T10:32:29.190Z,208.12
2019-05-07T10:33:29.157Z,213.75
2019-05-07T10:34:29.145Z,219.38
2019-05-07T10:35:31.009Z,225.00
2019-05-07T10:36:29.122Z,219.38
2019-05-07T10:37:29.135Z,213.75
2019-05-07T10:38:29.100Z,208.12
2019-05-07T10:39:29.091Z,191.25
2019-05-07T10:40:29.081Z,180.00
2019-05-07T10:41:29.067Z,168.75
2019-05-07T10:42:29.078Z,168.75
2019-05-07T10:43:29.044Z,163.12
2019-05-07T10:44:29.033Z,157.50
2019-05-07T10:45:29.022Z,151.88
2019-05-07T10:46:29.017Z,151.88
2019-05-07T10:47:29.025Z,151.88
2019-05-07T10:48:28.989Z,157.50
2019-05-07T10:49:28.978Z,163.12
2019-05-07T10:50:36.227Z,180.00
2019-05-07T10:51:28.961Z,208.12
2019-05-07T10:52:28.980Z,225.00
2019-05-07T10:53:28.949Z,247.50
2019-05-07T10:54:28.926Z,270.00
2019-05-07T10:55:28.918Z,292.50
2019-05-07T10:56:28.901Z,309.38
2019-05-07T10:57:28.892Z,298.12
2019-05-07T10:58:28.902Z,275.62
2019-05-07T10:59:28.867Z,275.62
2019-05-07T11:00:28.858Z,264.38
2019-05-07T11:01:28.845Z,270.00
2019-05-07T11:02:28.848Z,298.12
2019-05-07T11:03:28.847Z,326.25
2019-05-07T11:04:40.361Z,270.00
2019-05-07T11:05:29.805Z,264.38
2019-05-07T11:06:28.792Z,264.38
2019-05-07T11:07:28.788Z,241.88
2019-05-07T11:08:28.790Z,208.12
2019-05-07T11:09:28.758Z,163.12
2019-05-07T11:10:28.749Z,151.88
2019-05-07T11:11:28.743Z,157.50
2019-05-07T11:12:28.727Z,157.50
2019-05-07T11:13:28.737Z,157.50
2019-05-07T11:14:28.720Z,151.88
2019-05-07T11:15:28.691Z,140.62
2019-05-07T11:16:28.679Z,129.38
2019-05-07T11:17:28.673Z,123.75
2019-05-07T11:18:28.679Z,112.50
2019-05-07T11:19:28.646Z,106.88
2019-05-07T11:20:28.634Z,106.88
2019-05-07T11:21:28.623Z,101.25
2019-05-07T11:22:28.614Z,95.62
2019-05-07T11:23:28.628Z,90.00
2019-05-07T11:24:28.589Z,78.75
2019-05-07T11:25:28.582Z,73.12
2019-05-07T11:26:28.567Z,73.12
2019-05-07T11:27:28.557Z,67.50
2019-05-07T11:28:28.567Z,61.88
2019-05-07T11:29:28.533Z,61.88
2019-05-07T11:30:28.532Z,61.88
2019-05-07T11:31:28.511Z,61.88
2019-05-07T11:32:28.503Z,61.88
2019-05-07T11:33:28.515Z,56.25
2019-05-07T11:34:28.478Z,56.25
2019-05-07T11:35:28.465Z,56.25
2019-05-07T11:36:28.488Z,50.62
2019-05-07T11:37:28.502Z,56.25
2019-05-07T11:38:28.457Z,50.62
2019-05-07T11:39:28.422Z,50.62
2019-05-07T11:40:28.414Z,50.62
2019-05-07T11:41:28.401Z,50.62
2019-05-07T11:42:28.389Z,50.62
2019-05-07T11:43:28.402Z,45.00
2019-05-07T11:44:28.389Z,45.00
2019-05-07T11:45:28.358Z,45.00
2019-05-07T11:46:28.346Z,45.00
2019-05-07T11:47:28.332Z,45.00
2019-05-07T11:48:28.346Z,45.00
2019-05-07T11:49:28.380Z,45.00
2019-05-07T11:50:28.302Z,45.00
2019-05-07T11:51:28.291Z,45.00
2019-05-07T11:52:28.342Z,50.62
2019-05-07T11:53:28.301Z,50.62
2019-05-07T11:54:28.330Z,56.25
2019-05-07T11:55:28.242Z,56.25
2019-05-07T11:56:28.231Z,61.88
2019-05-07T11:57:28.233Z,73.12
2019-05-07T11:58:28.247Z,78.75
2019-05-07T11:59:28.199Z,84.38
2019-05-07T12:00:28.187Z,95.62
2019-05-07T12:01:41.629Z,95.62
2019-05-07T12:02:29.173Z,106.88
2019-05-07T12:03:28.184Z,112.50
2019-05-07T12:04:28.244Z,123.75
2019-05-07T12:05:28.134Z,135.00
2019-05-07T12:06:28.123Z,146.25
2019-05-07T12:07:28.110Z,151.88
2019-05-07T12:08:39.436Z,163.12
2019-05-07T12:09:28.101Z,196.88
2019-05-07T12:10:28.076Z,196.88
2019-05-07T12:11:28.070Z,208.12
2019-05-07T12:12:28.055Z,225.00
2019-05-07T12:13:28.071Z,241.88
2019-05-07T12:14:31.726Z,258.75
2019-05-07T12:15:28.023Z,286.88
2019-05-07T12:16:28.012Z,489.38
2019-05-07T12:17:28.073Z,315.00
2019-05-07T12:18:28.024Z,433.12
2019-05-07T12:19:27.977Z,337.50
2019-05-07T12:20:27.968Z,354.38
2019-05-07T12:21:27.956Z,444.38
2019-05-07T12:22:27.945Z,388.12
2019-05-07T12:23:27.934Z,354.38
2019-05-07T12:24:27.950Z,691.88
2019-05-07T12:25:27.909Z,348.75
2019-05-07T12:26:27.896Z,331.88
2019-05-07T12:27:27.885Z,326.25
2019-05-07T12:28:27.885Z,303.75
2019-05-07T12:29:27.889Z,286.88
2019-05-07T12:30:27.852Z,286.88
2019-05-07T12:31:27.846Z,275.62
2019-05-07T12:32:27.853Z,253.12
2019-05-07T12:33:27.820Z,241.88
2019-05-07T12:34:27.832Z,230.62
2019-05-07T12:35:27.800Z,219.38
2019-05-07T12:36:27.789Z,213.75
2019-05-07T12:37:27.775Z,202.50
2019-05-07T12:38:27.764Z,185.62
2019-05-07T12:39:27.776Z,168.75
2019-05-07T12:40:27.741Z,163.12
2019-05-07T12:41:27.734Z,174.38
2019-05-07T12:42:27.718Z,185.62
2019-05-07T12:43:27.710Z,191.25
2019-05-07T12:44:27.720Z,185.62
2019-05-07T12:45:27.687Z,168.75
2019-05-07T12:46:27.673Z,157.50
2019-05-07T12:47:27.667Z,146.25
2019-05-07T12:48:27.653Z,135.00
2019-05-07T12:49:27.664Z,129.38
2019-05-07T12:50:28.349Z,129.38
2019-05-07T12:51:36.402Z,129.38
2019-05-07T12:52:28.620Z,129.38
2019-05-07T12:53:27.646Z,123.75
2019-05-07T12:54:27.610Z,129.38
2019-05-07T12:55:27.583Z,140.62
2019-05-07T12:56:27.561Z,151.88
2019-05-07T12:57:27.555Z,163.12